Terminal Aerodrome Forecast
Issued by NWS

Home | Current Version | Previous Version | Text Only | Print | Product List | Glossary On
Versions: 1 2 3 4 5 6 7 8 9 10 11 12 13
000
FTUS46 KPDT 061122
TAFALW
TAF
KALW 061122Z 0612/0712 18009KT P6SM BKN080
     FM061700 21007KT P6SM SCT070
     FM062000 22008KT P6SM VCTS BKN060CB BKN100CB
     FM070200 13007KT P6SM VCSH BKN080 BKN150
     FM070600 15006KT P6SM BKN070 OVC130=

USA.gov is the U.S. government's official web portal to all federal, state and local government web resources and services.